GQNI

Néma Airport

Néma, Mauritania
METAR GQNI 131500Z 00000KT 8000 NSC 36/01 Q1009
Observed Flight Rules
Nov-13 @ 15:00 UTC (14 hours ago) Marginal Visual Flight Rules
Visibility Clouds
7,998 meters
  • Clear skies
Temperatures Readings
Current 36°C / 97°F
Dewpoint 1°C / 34°F
Humidity 11%
Altimeter 29.79" Hg
Pressure 1009 hPa
Elevation 269
METAR GQNI 131500Z 00000KT 8000 NSC 36/01 Q1009
Observed Flight Rules
Nov-13 @ 15:00 UTC
(14 hours ago)
MVFR
Clouds
  • Clear skies
Temperature Dewpoint
36°C / 97°F 1°C / 34°F
Humidity Altimeter Pressure
11% 29.79" Hg 1009 hPa